createdAt,value
2023-04-15T00:17:23.839Z,7.2
2023-04-15T00:27:26.041Z,7
2023-04-15T00:37:28.443Z,6.9
2023-04-15T00:47:30.596Z,6.8
2023-04-15T00:57:33.200Z,6.8
2023-04-15T01:07:35.138Z,6.7
2023-04-15T01:17:36.799Z,6.6
2023-04-15T01:37:41.579Z,6.2
2023-04-15T01:47:43.339Z,6.1
2023-04-15T01:57:45.862Z,6
2023-04-15T02:07:47.989Z,5.9
2023-04-15T02:17:50.518Z,5.7
2023-04-15T02:27:52.728Z,5.6
2023-04-15T03:08:01.739Z,5.3
2023-04-15T03:18:03.873Z,5.2
2023-04-15T03:28:05.901Z,5.1
2023-04-15T03:38:08.026Z,5
2023-04-15T03:48:17.555Z,5.1
2023-04-15T03:58:12.486Z,5
2023-04-15T04:08:14.145Z,5
2023-04-15T04:18:15.918Z,4.9
2023-04-15T04:28:18.410Z,4.8
2023-04-15T04:38:20.235Z,4.8
2023-04-15T04:48:22.219Z,4.8
2023-04-15T04:58:24.826Z,4.8
2023-04-15T05:08:27.185Z,4.8
2023-04-15T05:18:29.179Z,4.8
2023-04-15T05:28:31.086Z,4.8
2023-04-15T05:38:33.570Z,4.8
2023-04-15T05:58:36.911Z,4.8
2023-04-15T06:08:38.594Z,4.9
2023-04-15T06:18:40.697Z,4.8
2023-04-15T06:28:43.236Z,4.9
2023-04-15T06:38:45.469Z,5.3
2023-04-15T06:48:47.442Z,5.5
2023-04-15T06:58:49.779Z,5.8
2023-04-15T07:08:51.709Z,6.4
2023-04-15T07:18:53.617Z,6.5
2023-04-15T07:28:55.727Z,6.7
2023-04-15T07:38:58.186Z,7.1
2023-04-15T07:49:00.978Z,7.6
2023-04-15T07:59:02.960Z,8.1
2023-04-15T08:09:04.799Z,8.3
2023-04-15T08:19:06.667Z,8.5
2023-04-15T08:29:08.622Z,8.2
2023-04-15T08:49:13.052Z,8.4
2023-04-15T08:59:14.739Z,8.3
2023-04-15T09:09:17.114Z,8.4
2023-04-15T09:39:24.237Z,8.4
2023-04-15T09:59:29.328Z,8.6
2023-04-15T11:49:53.102Z,9.3
2023-04-15T12:09:56.959Z,9.3
2023-04-15T12:50:05.682Z,9.5
2023-04-15T15:40:41.941Z,8.3
2023-04-15T15:50:44.106Z,8.1
2023-04-15T16:00:46.271Z,8
2023-04-15T16:10:48.518Z,7.9
2023-04-15T16:20:50.638Z,7.8
2023-04-15T16:30:53.080Z,7.8
2023-04-15T16:40:55.233Z,7.7
2023-04-15T16:50:57.602Z,7.7
2023-04-15T17:01:00.139Z,7.7
2023-04-15T17:21:04.483Z,7.7
2023-04-15T17:31:06.733Z,7.7
2023-04-15T17:41:08.560Z,7.7
2023-04-15T18:01:12.446Z,7.7
2023-04-15T18:21:16.515Z,7.6
2023-04-15T18:31:18.989Z,7.6
2023-04-15T18:41:21.074Z,7.5
2023-04-15T20:12:05.361Z,7.4
2023-04-15T20:31:44.422Z,7.3
2023-04-15T20:41:46.366Z,7.3
2023-04-15T20:51:48.413Z,7.3
2023-04-15T21:01:50.385Z,7.3
2023-04-15T21:21:55.117Z,7.3
2023-04-15T21:31:57.763Z,7.3
2023-04-15T22:02:04.540Z,7.2
2023-04-15T22:22:08.905Z,7.3
2023-04-15T22:42:12.828Z,7.2
2023-04-15T23:02:17.574Z,7.2
2023-04-15T23:22:28.955Z,7.2
